Imbe, Brazil
Current Conditions -  °F | °C
As of 12:00 AM on Saturday 25 Oct 2014 (Local Time) from SBCO Reporting Station
Broken Clouds Broken Clouds  
Wind Chill: 68°   Ceiling: 900
Heat Index: 68°   Visibility: 4mi
Dew Point: 66°   Wind: 7mph
Humidity: 94%   Direction: 150°SSE
Pressure: 29.94"   Gusts: NA
Location:  29.98°S, 50.13°W
Report Text: SBCO 250200Z 15006KT 6000 BKN009 20/19 Q1014
Loading
Personal Weather Stations






























Interactive Weather Map
Tropical Storm Tracking
New forecast layout! Learn more

10-Day Weather Forecast

Advertisements
Track Severe Weather on mobile